createdAt,value
2018-12-21T00:00:18.864Z,98678.75
2018-12-21T00:02:29.716Z,98688.55
2018-12-21T00:04:40.596Z,98684.30
2018-12-21T00:06:51.436Z,98680.04
2018-12-21T00:09:04.059Z,98677.45
2018-12-21T00:11:14.893Z,98681.33
2018-12-21T00:13:25.736Z,98678.61
2018-12-21T00:15:36.561Z,98667.34
2018-12-21T00:17:47.405Z,98675.46
2018-12-21T00:19:58.252Z,98668.17
2018-12-21T00:22:09.090Z,98672.57
2018-12-21T00:24:19.938Z,98664.14
2018-12-21T00:26:30.793Z,98660.05
2018-12-21T00:28:41.616Z,98657.08
2018-12-21T00:30:58.813Z,98646.76
2018-12-21T00:33:15.789Z,98648.92
2018-12-21T00:35:32.720Z,98650.67
2018-12-21T00:37:49.760Z,98652.41
2018-12-21T00:40:06.576Z,98654.09
2018-12-21T00:42:20.455Z,98644.55
2018-12-21T00:44:32.551Z,98644.55
2018-12-21T00:46:43.390Z,98646.64
2018-12-21T00:48:54.224Z,98642.70
2018-12-21T00:51:05.177Z,98644.33
2018-12-21T00:53:16.034Z,98638.94
2018-12-21T00:55:26.877Z,98643.16
2018-12-21T00:57:37.832Z,98645.66
2018-12-21T00:59:49.208Z,98652.46
2018-12-21T01:02:00.055Z,98635.87
2018-12-21T01:04:10.893Z,98631.92
2018-12-21T01:06:21.757Z,98633.21
2018-12-21T01:08:32.577Z,98626.56
2018-12-21T01:10:43.565Z,98629.52
2018-12-21T01:12:54.376Z,98633.05
2018-12-21T01:15:05.358Z,98624.70
2018-12-21T01:17:16.196Z,98626.87
2018-12-21T01:19:27.040Z,98609.22
2018-12-21T01:21:38.867Z,98610.50
2018-12-21T01:23:50.144Z,98612.29
2018-12-21T01:26:01.020Z,98610.62
2018-12-21T01:28:11.860Z,98612.18
2018-12-21T01:30:22.733Z,98610.93
2018-12-21T01:32:33.553Z,98612.67
2018-12-21T01:34:44.379Z,98617.91
2018-12-21T01:36:55.237Z,98619.85
2018-12-21T01:39:06.101Z,98617.99
2018-12-21T01:41:16.943Z,98618.27
2018-12-21T01:43:27.785Z,98619.78
2018-12-21T01:45:38.653Z,98624.11
2018-12-21T01:47:49.469Z,98632.77
2018-12-21T01:50:00.304Z,98635.20
2018-12-21T01:52:11.142Z,98642.56
2018-12-21T01:54:22.014Z,98633.07
2018-12-21T01:56:32.848Z,98637.25
2018-12-21T01:58:43.725Z,98629.92
2018-12-21T02:00:54.572Z,98628.73
2018-12-21T02:03:05.402Z,98633.45
2018-12-21T02:05:16.283Z,98632.05
2018-12-21T02:07:27.133Z,98627.45
2018-12-21T02:09:37.989Z,98629.95
2018-12-21T02:11:48.834Z,98632.09
2018-12-21T02:13:59.671Z,98629.08
2018-12-21T02:16:10.501Z,98624.56
2018-12-21T02:18:21.359Z,98622.89
2018-12-21T02:20:32.177Z,98620.34
2018-12-21T02:22:43.024Z,98616.09
2018-12-21T02:24:53.854Z,98619.25
2018-12-21T02:27:04.721Z,98618.34
2018-12-21T02:29:15.665Z,98620.42
2018-12-21T02:31:26.483Z,98619.02
2018-12-21T02:33:37.321Z,98613.39
2018-12-21T02:35:48.166Z,98618.94
2018-12-21T02:37:59.009Z,98612.94
2018-12-21T02:40:09.851Z,98611.41
2018-12-21T02:42:20.680Z,98600.24
2018-12-21T02:44:31.540Z,98594.16
2018-12-21T02:46:42.391Z,98586.08
2018-12-21T02:48:53.235Z,98590.91
2018-12-21T02:51:04.065Z,98591.50
2018-12-21T02:53:14.973Z,98595.80
2018-12-21T02:55:25.822Z,98596.17
2018-12-21T02:57:36.803Z,98588.42
2018-12-21T02:59:47.664Z,98586.75
2018-12-21T03:01:58.506Z,98584.09
2018-12-21T03:04:09.344Z,98574.67
2018-12-21T03:06:20.260Z,98564.91
2018-12-21T03:08:31.105Z,98558.72
2018-12-21T03:10:41.908Z,98556.89
2018-12-21T03:12:53.254Z,98558.34
2018-12-21T03:15:04.623Z,98541.80
2018-12-21T03:17:15.512Z,98536.89
2018-12-21T03:19:26.369Z,98535.09
2018-12-21T03:21:37.309Z,98525.25
2018-12-21T03:23:48.139Z,98520.47
2018-12-21T03:25:58.984Z,98519.30
2018-12-21T03:28:09.808Z,98515.30
2018-12-21T03:30:20.669Z,98518.41
2018-12-21T03:32:31.642Z,98515.63
2018-12-21T03:34:42.613Z,98505.29
2018-12-21T03:36:53.548Z,98506.66
2018-12-21T03:39:06.400Z,98497.28
2018-12-21T03:41:17.245Z,98491.16
2018-12-21T03:43:28.063Z,98487.21
2018-12-21T03:45:38.931Z,98482.50
2018-12-21T03:47:49.766Z,98475.97
2018-12-21T03:50:00.715Z,98467.00
2018-12-21T03:52:11.545Z,98465.34
2018-12-21T03:54:22.481Z,98463.59
2018-12-21T03:56:33.313Z,98461.34
2018-12-21T03:58:44.116Z,98455.38
2018-12-21T04:00:54.977Z,98444.97
2018-12-21T04:03:05.912Z,98440.67
2018-12-21T04:05:16.870Z,98438.22
2018-12-21T04:07:27.727Z,98435.42
2018-12-21T04:09:38.557Z,98433.17
2018-12-21T04:11:49.411Z,98422.39
2018-12-21T04:14:00.344Z,98412.06
2018-12-21T04:16:11.200Z,98408.77
2018-12-21T04:18:22.140Z,98407.02
2018-12-21T04:20:32.981Z,98400.44
2018-12-21T04:22:43.805Z,98390.81
2018-12-21T04:24:54.769Z,98384.69
2018-12-21T04:27:05.605Z,98384.22
2018-12-21T04:29:16.425Z,98389.02
2018-12-21T04:31:27.273Z,98389.84
2018-12-21T04:33:38.977Z,98396.93
2018-12-21T04:35:49.926Z,98408.55
2018-12-21T04:38:00.773Z,98412.22
2018-12-21T04:40:11.589Z,98396.80
2018-12-21T04:42:22.429Z,98406.63
2018-12-21T04:44:33.280Z,98417.84
2018-12-21T04:46:44.204Z,98416.09
2018-12-21T04:48:55.065Z,98416.88
2018-12-21T04:51:05.890Z,98409.13
2018-12-21T04:53:16.738Z,98401.25
2018-12-21T04:55:27.653Z,98406.88
2018-12-21T04:57:38.480Z,98402.92
2018-12-21T04:59:49.337Z,98408.09
2018-12-21T05:02:00.184Z,98400.71
2018-12-21T05:04:19.530Z,98408.87
2018-12-21T05:06:23.877Z,98403.58
2018-12-21T05:08:34.740Z,98389.74
2018-12-21T05:10:45.698Z,98401.83
2018-12-21T05:12:56.506Z,98398.20
2018-12-21T05:15:07.459Z,98394.53
2018-12-21T05:17:18.376Z,98398.00
2018-12-21T05:19:29.215Z,98388.91
2018-12-21T05:21:40.034Z,98393.41
2018-12-21T05:23:51.179Z,98379.78
2018-12-21T05:26:02.150Z,98380.94
2018-12-21T05:28:12.971Z,98382.23
2018-12-21T05:30:24.105Z,98384.09
2018-12-21T05:32:34.982Z,98379.49
2018-12-21T05:34:45.840Z,98381.16
2018-12-21T05:36:56.756Z,98385.50
2018-12-21T05:39:07.636Z,98376.78
2018-12-21T05:41:18.479Z,98374.11
2018-12-21T05:43:29.329Z,98379.52
2018-12-21T05:45:40.177Z,98371.44
2018-12-21T05:47:51.008Z,98364.60
2018-12-21T05:50:01.931Z,98370.55
2018-12-21T05:52:12.777Z,98366.19
2018-12-21T05:54:23.605Z,98362.17
2018-12-21T05:56:34.454Z,98341.41
2018-12-21T05:58:45.384Z,98337.06
2018-12-21T06:00:56.241Z,98334.34
2018-12-21T06:03:07.072Z,98322.70
2018-12-21T06:05:17.893Z,98332.96
2018-12-21T06:07:28.781Z,98330.32
2018-12-21T06:09:39.610Z,98326.91
2018-12-21T06:11:50.475Z,98327.88
2018-12-21T06:14:01.335Z,98328.06
2018-12-21T06:16:12.169Z,98322.43
2018-12-21T06:18:23.002Z,98324.36
2018-12-21T06:20:33.865Z,98322.87
2018-12-21T06:22:44.713Z,98317.61
2018-12-21T06:24:55.544Z,98305.59
2018-12-21T06:27:06.372Z,98297.17
2018-12-21T06:29:17.228Z,98296.02
2018-12-21T06:31:28.088Z,98301.48
2018-12-21T06:33:38.901Z,98301.57
2018-12-21T06:35:49.750Z,98286.64
2018-12-21T06:38:00.628Z,98286.96
2018-12-21T06:40:11.477Z,98275.08
2018-12-21T06:42:22.316Z,98273.79
2018-12-21T06:44:33.424Z,98262.70
2018-12-21T06:46:44.297Z,98259.19
2018-12-21T06:48:55.136Z,98256.08
2018-12-21T06:51:05.970Z,98251.42
2018-12-21T06:53:18.134Z,98254.39
2018-12-21T06:55:29.452Z,98249.77
2018-12-21T06:57:40.349Z,98252.95
2018-12-21T06:59:51.249Z,98251.05
2018-12-21T07:02:02.147Z,98248.84
2018-12-21T07:04:12.964Z,98243.22
2018-12-21T07:06:23.792Z,98246.33
2018-12-21T07:08:34.645Z,98244.34
2018-12-21T07:10:45.464Z,98237.83
2018-12-21T07:12:56.339Z,98235.90
2018-12-21T07:15:07.400Z,98240.36
2018-12-21T07:17:18.229Z,98230.94
2018-12-21T07:19:29.092Z,98221.56
2018-12-21T07:21:39.956Z,98207.89
2018-12-21T07:23:50.817Z,98208.88
2018-12-21T07:26:01.673Z,98204.53
2018-12-21T07:28:12.553Z,98201.58
2018-12-21T07:30:23.410Z,98192.98
2018-12-21T07:32:34.237Z,98185.28
2018-12-21T07:34:45.121Z,98176.38
2018-12-21T07:36:55.947Z,98170.01
2018-12-21T07:39:07.034Z,98164.89
2018-12-21T07:41:17.873Z,98161.80
2018-12-21T07:43:28.755Z,98154.72
2018-12-21T07:45:39.604Z,98153.33
2018-12-21T07:47:50.446Z,98153.52
2018-12-21T07:50:01.300Z,98160.50
2018-12-21T07:52:12.149Z,98159.11
2018-12-21T07:54:23.020Z,98148.71
2018-12-21T07:56:33.860Z,98140.95
2018-12-21T07:58:44.670Z,98147.88
2018-12-21T08:00:55.638Z,98152.50
2018-12-21T08:03:06.466Z,98160.50
2018-12-21T08:05:17.370Z,98144.08
2018-12-21T08:07:28.291Z,98151.89
2018-12-21T08:09:39.184Z,98150.91
2018-12-21T08:11:50.137Z,98149.31
2018-12-21T08:14:00.991Z,98141.64
2018-12-21T08:16:11.843Z,98124.67
2018-12-21T08:18:22.673Z,98140.19
2018-12-21T08:20:33.568Z,98138.00
2018-12-21T08:22:44.404Z,98140.59
2018-12-21T08:24:55.221Z,98135.79
2018-12-21T08:27:06.068Z,98131.59
2018-12-21T08:29:16.909Z,98124.98
2018-12-21T08:31:27.766Z,98117.69
2018-12-21T08:33:38.748Z,98123.08
2018-12-21T08:35:49.610Z,98111.89
2018-12-21T08:38:00.468Z,98122.48
2018-12-21T08:40:11.306Z,98110.69
2018-12-21T08:42:22.204Z,98100.26
2018-12-21T08:44:33.061Z,98111.46
2018-12-21T08:46:43.912Z,98100.20
2018-12-21T08:48:54.767Z,98103.46
2018-12-21T08:51:05.636Z,98098.14
2018-12-21T08:53:16.473Z,98083.14
2018-12-21T08:55:27.307Z,98091.67
2018-12-21T08:57:38.165Z,98079.02
2018-12-21T08:59:48.997Z,98078.04
2018-12-21T09:01:59.832Z,98070.65
2018-12-21T09:04:10.652Z,98061.62
2018-12-21T09:06:21.545Z,98065.25
2018-12-21T09:08:32.533Z,98085.21
2018-12-21T09:10:43.383Z,98070.52
2018-12-21T09:12:54.245Z,98070.06
2018-12-21T09:15:08.478Z,98073.02
2018-12-21T09:17:19.350Z,98085.21
2018-12-21T09:19:30.181Z,98088.16
2018-12-21T09:21:41.053Z,98079.64
2018-12-21T09:23:51.910Z,98093.34
2018-12-21T09:26:02.744Z,98075.81
2018-12-21T09:28:13.576Z,98091.34
2018-12-21T09:30:24.425Z,98092.11
2018-12-21T09:32:35.254Z,98084.92
2018-12-21T09:34:46.094Z,98069.25
2018-12-21T09:36:56.934Z,98069.59
2018-12-21T09:39:07.814Z,98055.73
2018-12-21T09:41:18.652Z,98052.22
2018-12-21T09:43:29.485Z,98035.24
2018-12-21T09:45:40.360Z,98036.84
2018-12-21T09:47:51.199Z,98032.80
2018-12-21T09:50:02.338Z,98027.53
2018-12-21T09:52:13.200Z,98021.83
2018-12-21T09:54:24.073Z,98008.80
2018-12-21T09:56:34.897Z,98004.65
2018-12-21T09:58:45.758Z,97991.25
2018-12-21T10:00:56.617Z,97982.13
2018-12-21T10:03:07.460Z,97969.08
2018-12-21T10:05:18.332Z,97965.30
2018-12-21T10:07:29.160Z,97965.41
2018-12-21T10:09:40.029Z,97951.83
2018-12-21T10:11:50.893Z,97946.89
2018-12-21T10:14:01.837Z,97944.56
2018-12-21T10:16:12.683Z,97937.09
2018-12-21T10:18:23.569Z,97925.34
2018-12-21T10:20:34.414Z,97940.70
2018-12-21T10:22:45.360Z,97923.69
2018-12-21T10:24:56.225Z,97923.81
2018-12-21T10:27:07.050Z,97908.47
2018-12-21T10:29:17.881Z,97897.37
2018-12-21T10:31:28.739Z,97901.19
2018-12-21T10:33:39.700Z,97887.86
2018-12-21T10:35:50.559Z,97887.88
2018-12-21T10:38:01.389Z,97874.68
2018-12-21T10:40:12.256Z,97858.39
2018-12-21T10:42:23.107Z,97857.20
2018-12-21T10:44:34.173Z,97851.73
2018-12-21T10:46:45.049Z,97844.15
2018-12-21T10:48:55.964Z,97873.41
2018-12-21T10:51:06.853Z,97859.16
2018-12-21T10:53:17.711Z,97848.43
2018-12-21T10:55:28.539Z,97856.74
2018-12-21T10:57:39.406Z,97847.78
2018-12-21T10:59:50.224Z,97843.90
2018-12-21T11:02:01.057Z,97831.95
2018-12-21T11:04:13.524Z,97852.86
2018-12-21T11:06:24.461Z,97823.70
2018-12-21T11:08:35.379Z,97815.18
2018-12-21T11:10:46.234Z,97815.58
2018-12-21T11:12:57.105Z,97820.65
2018-12-21T11:15:08.049Z,97798.16
2018-12-21T11:17:18.914Z,97811.58
2018-12-21T11:19:29.855Z,97815.94
2018-12-21T11:21:40.712Z,97811.04
2018-12-21T11:23:51.642Z,97812.98
2018-12-21T11:26:02.602Z,97800.86
2018-12-21T11:28:13.458Z,97805.58
2018-12-21T11:30:24.346Z,97807.23
2018-12-21T11:32:35.250Z,97803.81
2018-12-21T11:34:46.179Z,97809.64
2018-12-21T11:36:57.131Z,97807.70
2018-12-21T11:39:07.995Z,97796.96
2018-12-21T11:41:18.845Z,97810.62
2018-12-21T11:43:29.719Z,97806.67
2018-12-21T11:45:40.584Z,97819.80
2018-12-21T11:47:51.441Z,97812.30
2018-12-21T11:50:04.759Z,97817.66
2018-12-21T11:52:15.598Z,97808.41
2018-12-21T11:54:26.487Z,97814.78
2018-12-21T11:56:37.372Z,97809.88
2018-12-21T11:58:48.212Z,97799.39
2018-12-21T12:00:59.074Z,97803.09
2018-12-21T12:03:09.959Z,97798.73
2018-12-21T12:05:20.843Z,97802.62
2018-12-21T12:07:38.708Z,97794.84
2018-12-21T12:09:49.559Z,97796.14
2018-12-21T12:12:00.503Z,97806.33
2018-12-21T12:14:11.359Z,97781.86
2018-12-21T12:16:22.227Z,97793.17
2018-12-21T12:18:33.079Z,97804.75
2018-12-21T12:20:43.926Z,97789.66
2018-12-21T12:22:54.793Z,97798.08
2018-12-21T12:25:05.657Z,97792.70
2018-12-21T12:27:16.508Z,97793.92
2018-12-21T12:29:27.366Z,97792.16
2018-12-21T12:31:38.249Z,97796.70
2018-12-21T12:33:49.895Z,97799.55
2018-12-21T12:36:00.776Z,97792.88
2018-12-21T12:38:11.676Z,97787.97
2018-12-21T12:40:22.700Z,97792.32
2018-12-21T12:42:33.546Z,97783.88
2018-12-21T12:44:44.455Z,97788.05
2018-12-21T12:46:55.307Z,97777.92
2018-12-21T12:49:06.279Z,97790.81
2018-12-21T12:51:17.141Z,97793.13
2018-12-21T12:53:27.976Z,97783.69
2018-12-21T12:55:38.845Z,97788.24
2018-12-21T12:57:49.669Z,97791.66
2018-12-21T13:00:00.523Z,97787.94
2018-12-21T13:02:11.393Z,97780.69
2018-12-21T13:04:22.253Z,97779.03
2018-12-21T13:06:33.108Z,97799.70
2018-12-21T13:08:43.966Z,97791.06
2018-12-21T13:10:54.829Z,97776.91
2018-12-21T13:13:06.050Z,97785.05
2018-12-21T13:15:16.886Z,97790.90
2018-12-21T13:17:27.749Z,97797.83
2018-12-21T13:19:38.577Z,97800.70
2018-12-21T13:21:49.445Z,97795.59
2018-12-21T13:24:00.314Z,97797.16
2018-12-21T13:26:11.279Z,97787.42
2018-12-21T13:28:22.248Z,97785.09
2018-12-21T13:30:33.144Z,97794.70
2018-12-21T13:32:44.021Z,97805.08
2018-12-21T13:34:54.857Z,97802.12
2018-12-21T13:37:05.727Z,97795.75
2018-12-21T13:39:16.601Z,97794.54
2018-12-21T13:41:27.564Z,97805.31
2018-12-21T13:43:38.462Z,97801.58
2018-12-21T13:45:49.385Z,97805.47
2018-12-21T13:48:00.336Z,97808.42
2018-12-21T13:50:11.171Z,97809.52
2018-12-21T13:52:22.068Z,97812.84
2018-12-21T13:54:32.921Z,97824.44
2018-12-21T13:56:43.780Z,97812.28
2018-12-21T13:58:54.649Z,97821.01
2018-12-21T14:01:05.653Z,97820.06
2018-12-21T14:03:16.534Z,97814.13
2018-12-21T14:05:27.385Z,97827.86
2018-12-21T14:07:38.237Z,97824.44
2018-12-21T14:09:49.129Z,97826.36
2018-12-21T14:12:00.003Z,97835.80
2018-12-21T14:14:10.851Z,97831.83
2018-12-21T14:16:21.736Z,97823.66
2018-12-21T14:18:32.609Z,97827.47
2018-12-21T14:20:43.442Z,97829.95
2018-12-21T14:22:54.288Z,97828.92
2018-12-21T14:25:05.296Z,97832.62
2018-12-21T14:27:16.140Z,97834.63
2018-12-21T14:29:27.012Z,97832.43
2018-12-21T14:31:37.970Z,97828.26
2018-12-21T14:33:48.827Z,97825.55
2018-12-21T14:35:59.687Z,97836.52
2018-12-21T14:38:10.542Z,97827.27
2018-12-21T14:40:21.417Z,97825.74
2018-12-21T14:42:32.241Z,97829.36
2018-12-21T14:44:43.196Z,97829.44
2018-12-21T14:46:54.055Z,97828.14
2018-12-21T14:49:04.926Z,97832.31
2018-12-21T14:51:15.928Z,97814.41
2018-12-21T14:53:26.776Z,97808.83
2018-12-21T14:55:37.860Z,97830.90
2018-12-21T14:57:48.863Z,97828.22
2018-12-21T14:59:59.763Z,97825.70
2018-12-21T15:02:10.612Z,97831.29
2018-12-21T15:04:21.604Z,97837.78
2018-12-21T15:06:32.504Z,97831.17
2018-12-21T15:08:43.384Z,97839.59
2018-12-21T15:10:54.261Z,97843.61
2018-12-21T15:13:05.129Z,97842.55
2018-12-21T15:15:15.968Z,97846.25
2018-12-21T15:17:26.869Z,97851.44
2018-12-21T15:19:37.704Z,97853.95
2018-12-21T15:21:48.556Z,97849.47
2018-12-21T15:23:59.410Z,97852.45
2018-12-21T15:26:10.386Z,97853.28
2018-12-21T15:28:21.372Z,97852.19
2018-12-21T15:30:32.261Z,97844.91
2018-12-21T15:32:43.110Z,97853.28
2018-12-21T15:34:53.950Z,97859.47
2018-12-21T15:37:04.828Z,97858.80
2018-12-21T15:39:15.657Z,97866.39
2018-12-21T15:41:26.563Z,97859.16
2018-12-21T15:43:37.416Z,97861.28
2018-12-21T15:45:48.271Z,97862.97
2018-12-21T15:47:59.113Z,97858.02
2018-12-21T15:50:10.113Z,97864.22
2018-12-21T15:52:20.988Z,97864.47
2018-12-21T15:54:31.874Z,97872.64
2018-12-21T15:56:42.759Z,97870.25
2018-12-21T15:58:53.624Z,97853.45
2018-12-21T16:01:04.565Z,97854.30
2018-12-21T16:03:15.425Z,97857.06
2018-12-21T16:05:26.281Z,97856.63
2018-12-21T16:07:37.100Z,97853.95
2018-12-21T16:09:47.985Z,97868.27
2018-12-21T16:11:58.885Z,97868.90
2018-12-21T16:14:09.894Z,97867.16
2018-12-21T16:16:20.755Z,97874.95
2018-12-21T16:18:31.594Z,97874.72
2018-12-21T16:20:42.451Z,97872.39
2018-12-21T16:22:53.301Z,97881.02
2018-12-21T16:25:04.322Z,97881.56
2018-12-21T16:27:15.325Z,97874.00
2018-12-21T16:29:26.347Z,97874.27
2018-12-21T16:31:37.309Z,97875.36
2018-12-21T16:33:48.247Z,97881.30
2018-12-21T16:35:59.124Z,97880.36
2018-12-21T16:38:09.974Z,97874.22
2018-12-21T16:40:20.876Z,97870.38
2018-12-21T16:42:31.728Z,97877.70
2018-12-21T16:44:42.627Z,97876.73
2018-12-21T16:46:53.475Z,97878.66
2018-12-21T16:49:04.324Z,97882.23
2018-12-21T16:51:15.220Z,97889.83
2018-12-21T16:53:26.090Z,97891.83
2018-12-21T16:55:36.992Z,97884.41
2018-12-21T16:57:47.840Z,97890.92
2018-12-21T16:59:59.577Z,97897.30
2018-12-21T17:02:10.427Z,97899.91
2018-12-21T17:04:21.256Z,97906.67
2018-12-21T17:06:32.137Z,97906.75
2018-12-21T17:08:43.003Z,97900.88
2018-12-21T17:10:54.424Z,97914.06
2018-12-21T17:13:05.284Z,97911.46
2018-12-21T17:15:16.217Z,97923.43
2018-12-21T17:17:27.093Z,97930.47
2018-12-21T17:19:37.968Z,97933.42
2018-12-21T17:21:48.850Z,97926.72
2018-12-21T17:23:59.753Z,97931.95
2018-12-21T17:26:10.634Z,97925.91
2018-12-21T17:28:21.532Z,97927.95
2018-12-21T17:30:32.377Z,97930.30
2018-12-21T17:32:43.260Z,97935.02
2018-12-21T17:34:55.909Z,97940.38
2018-12-21T17:37:07.020Z,97938.51
2018-12-21T17:39:17.888Z,97932.27
2018-12-21T17:41:28.735Z,97940.31
2018-12-21T17:43:39.601Z,97949.33
2018-12-21T17:45:50.458Z,97946.46
2018-12-21T17:48:01.393Z,97959.38
2018-12-21T17:50:12.257Z,97958.44
2018-12-21T17:52:23.149Z,97965.77
2018-12-21T17:54:33.996Z,97967.06
2018-12-21T17:56:44.854Z,97972.16
2018-12-21T17:58:55.737Z,97979.28
2018-12-21T18:01:06.596Z,97974.94
2018-12-21T18:03:20.312Z,97986.26
2018-12-21T18:05:31.270Z,97986.38
2018-12-21T18:07:42.165Z,97988.30
2018-12-21T18:09:53.044Z,97983.30
2018-12-21T18:12:03.965Z,97992.67
2018-12-21T18:14:14.843Z,97998.23
2018-12-21T18:16:25.717Z,97994.69
2018-12-21T18:18:36.590Z,97989.63
2018-12-21T18:20:48.180Z,97990.93
2018-12-21T18:23:00.394Z,97991.17
2018-12-21T18:25:11.613Z,97994.69
2018-12-21T18:27:22.453Z,97990.22
2018-12-21T18:29:33.316Z,97984.81
2018-12-21T18:31:47.834Z,97998.03
2018-12-21T18:33:59.071Z,98007.61
2018-12-21T18:36:09.911Z,98003.70
2018-12-21T18:38:20.896Z,98005.92
2018-12-21T18:40:31.794Z,97999.54
2018-12-21T18:42:42.679Z,97996.81
2018-12-21T18:44:53.572Z,98000.63
2018-12-21T18:47:04.479Z,98004.80
2018-12-21T18:49:15.345Z,98012.37
2018-12-21T18:51:26.188Z,97995.22
2018-12-21T18:53:37.043Z,97983.72
2018-12-21T18:55:48.056Z,97990.58
2018-12-21T18:57:58.917Z,97980.64
2018-12-21T19:00:11.883Z,97975.55
2018-12-21T19:02:22.766Z,97971.27
2018-12-21T19:04:33.640Z,97967.42
2018-12-21T19:06:44.517Z,97977.36
2018-12-21T19:08:55.366Z,97967.27
2018-12-21T19:11:06.243Z,97977.20
2018-12-21T19:13:17.115Z,97980.61
2018-12-21T19:15:28.030Z,97978.53
2018-12-21T19:17:38.954Z,97978.62
2018-12-21T19:19:49.794Z,97971.20
2018-12-21T19:22:00.673Z,97974.25
2018-12-21T19:24:11.565Z,97983.27
2018-12-21T19:26:22.433Z,97978.69
2018-12-21T19:28:33.284Z,97973.56
2018-12-21T19:30:44.141Z,97979.36
2018-12-21T19:32:55.028Z,97981.81
2018-12-21T19:35:06.741Z,97990.17
2018-12-21T19:37:17.617Z,97985.64
2018-12-21T19:39:28.467Z,97984.36
2018-12-21T19:41:39.489Z,97985.31
2018-12-21T19:43:50.414Z,97980.19
2018-12-21T19:46:01.286Z,97964.83
2018-12-21T19:48:12.177Z,97972.63
2018-12-21T19:50:23.141Z,97975.98
2018-12-21T19:52:34.048Z,97973.97
2018-12-21T19:54:45.735Z,97975.94
2018-12-21T19:57:04.473Z,97987.52
2018-12-21T19:59:12.749Z,97981.66
2018-12-21T20:01:23.633Z,97990.36
2018-12-21T20:03:34.600Z,97996.81
2018-12-21T20:05:45.584Z,98006.73
2018-12-21T20:07:56.477Z,97996.38
2018-12-21T20:10:08.902Z,97992.28
2018-12-21T20:12:19.766Z,97997.08
2018-12-21T20:14:30.656Z,97987.53
2018-12-21T20:16:41.530Z,97998.09
2018-12-21T20:18:52.399Z,97997.70
2018-12-21T20:21:03.256Z,98001.05
2018-12-21T20:23:14.113Z,97999.39
2018-12-21T20:25:24.964Z,97999.95
2018-12-21T20:27:35.799Z,97986.23
2018-12-21T20:29:46.718Z,97991.05
2018-12-21T20:31:57.567Z,97988.89
2018-12-21T20:34:08.498Z,97986.68
2018-12-21T20:36:19.500Z,97993.66
2018-12-21T20:38:30.361Z,97996.52
2018-12-21T20:40:41.221Z,97992.89
2018-12-21T20:42:52.088Z,97993.45
2018-12-21T20:45:05.716Z,97994.48
2018-12-21T20:47:16.741Z,97991.05
2018-12-21T20:49:27.607Z,97997.35
2018-12-21T20:51:38.478Z,97997.08
2018-12-21T20:53:49.355Z,97998.77
2018-12-21T20:56:00.252Z,97998.09
2018-12-21T20:58:12.791Z,98011.30
2018-12-21T21:00:23.660Z,98009.41
2018-12-21T21:02:34.522Z,98014.26
2018-12-21T21:04:45.361Z,98018.52
2018-12-21T21:06:56.385Z,98019.26
2018-12-21T21:09:07.903Z,98018.59
2018-12-21T21:11:24.280Z,98029.46
2018-12-21T21:13:31.716Z,98030.41
2018-12-21T21:15:42.596Z,98027.42
2018-12-21T21:17:53.475Z,98017.95
2018-12-21T21:20:08.061Z,98015.36
2018-12-21T21:22:18.938Z,98016.77
2018-12-21T21:24:29.793Z,98011.77
2018-12-21T21:26:40.729Z,98010.95
2018-12-21T21:28:51.601Z,98013.90
2018-12-21T21:31:02.494Z,98016.30
2018-12-21T21:33:13.353Z,98013.70
2018-12-21T21:35:24.241Z,98022.60
2018-12-21T21:37:35.087Z,98026.27
2018-12-21T21:39:45.999Z,98035.17
2018-12-21T21:41:56.921Z,98036.75
2018-12-21T21:44:07.765Z,98036.07
2018-12-21T21:46:18.641Z,98040.09
2018-12-21T21:48:29.552Z,98040.09
2018-12-21T21:50:40.427Z,98036.63
2018-12-21T21:52:51.377Z,98053.09
2018-12-21T21:55:03.012Z,98039.34
2018-12-21T21:57:13.974Z,98052.23
2018-12-21T21:59:24.834Z,98061.81
2018-12-21T22:01:35.669Z,98056.61
2018-12-21T22:03:47.073Z,98051.45
2018-12-21T22:05:57.968Z,98065.61
2018-12-21T22:08:08.912Z,98064.03
2018-12-21T22:10:19.763Z,98066.55
2018-12-21T22:12:30.773Z,98063.33
2018-12-21T22:14:41.633Z,98059.06
2018-12-21T22:16:52.521Z,98060.56
2018-12-21T22:19:03.401Z,98070.33
2018-12-21T22:21:14.401Z,98077.31
2018-12-21T22:23:25.263Z,98080.27
2018-12-21T22:25:36.185Z,98073.95
2018-12-21T22:27:48.090Z,98077.86
2018-12-21T22:29:59.376Z,98078.77
2018-12-21T22:32:10.240Z,98080.70
2018-12-21T22:34:21.125Z,98074.13
2018-12-21T22:36:32.008Z,98082.28
2018-12-21T22:38:42.870Z,98082.00
2018-12-21T22:40:53.691Z,98080.59
2018-12-21T22:43:04.548Z,98082.24
2018-12-21T22:45:15.395Z,98080.59
2018-12-21T22:47:26.261Z,98080.23
2018-12-21T22:49:37.151Z,98081.53
2018-12-21T22:51:47.992Z,98074.87
2018-12-21T22:54:00.923Z,98076.72
2018-12-21T22:56:11.758Z,98074.87
2018-12-21T22:58:22.620Z,98073.92
2018-12-21T23:00:34.710Z,98069.28
2018-12-21T23:02:45.551Z,98067.46
2018-12-21T23:04:56.563Z,98070.89
2018-12-21T23:07:07.428Z,98065.80
2018-12-21T23:09:18.360Z,98071.00
2018-12-21T23:11:29.241Z,98069.42
2018-12-21T23:13:40.079Z,98070.73
2018-12-21T23:15:50.961Z,98065.05
2018-12-21T23:18:01.877Z,98066.72
2018-12-21T23:20:12.807Z,98069.90
2018-12-21T23:22:23.728Z,98073.80
2018-12-21T23:24:34.590Z,98075.81
2018-12-21T23:26:45.452Z,98077.11
2018-12-21T23:28:56.324Z,98072.77
2018-12-21T23:31:07.189Z,98079.36
2018-12-21T23:33:18.039Z,98074.34
2018-12-21T23:35:28.913Z,98076.12
2018-12-21T23:37:39.756Z,98070.45
2018-12-21T23:39:50.605Z,98079.19
2018-12-21T23:42:01.456Z,98078.17
2018-12-21T23:44:12.292Z,98070.17
2018-12-21T23:46:23.423Z,98073.21
2018-12-21T23:48:34.357Z,98074.52
2018-12-21T23:50:45.226Z,98076.67
2018-12-21T23:52:56.073Z,98073.21
2018-12-21T23:55:06.932Z,98077.03
2018-12-21T23:57:17.764Z,98063.48
2018-12-21T23:59:28.602Z,98064.70
